Autodesk Net Profit Margin 2006-2021 | ADSK

Current and historical net profit margin for Autodesk (ADSK) from 2006 to 2021. Net profit margin can be defined as net Income as a portion of total sales revenue. Autodesk net profit margin for the three months ending April 30, 2021 was .
Autodesk Net Profit Margin Historical Data
Date TTM Revenue TTM Net Income Net Margin
2021-04-30 $3.89B $1.30B 33.32%
2021-01-31 $3.79B $1.21B 31.87%
2020-10-31 $3.65B $0.43B 11.75%
2020-07-31 $3.54B $0.36B 10.28%
2020-04-30 $3.43B $0.31B 8.93%
2020-01-31 $3.28B $0.22B 6.56%
2019-10-31 $3.11B $0.15B 4.75%
2019-07-31 $2.93B $0.06B 1.94%
2019-04-30 $2.75B $-0.02B -0.80%
2019-01-31 $2.57B $-0.08B -3.11%
2018-10-31 $2.39B $-0.32B -13.36%
2018-07-31 $2.24B $-0.42B -18.52%
2018-04-30 $2.13B $-0.52B -24.40%
2018-01-31 $2.06B $-0.57B -27.61%
2017-10-31 $1.98B $-0.57B -28.61%
2017-07-31 $1.96B $-0.59B -30.15%
2017-04-30 $2.01B $-0.54B -27.12%
2017-01-31 $2.03B $-0.58B -28.64%
2016-10-31 $2.20B $-0.45B -20.26%
2016-07-31 $2.31B $-0.35B -15.02%
2016-04-30 $2.37B $-0.52B -21.86%
2016-01-31 $2.51B $-0.33B -13.21%
2015-10-31 $2.52B $-0.28B -11.18%
2015-07-31 $2.54B $-0.23B -8.94%
2015-04-30 $2.57B $0.07B 2.84%
2015-01-31 $2.51B $0.08B 3.26%
2014-10-31 $2.44B $0.12B 5.09%
2014-07-31 $2.37B $0.17B 7.21%
2014-04-30 $2.30B $0.20B 8.79%
2014-01-31 $2.27B $0.23B 10.11%
2013-10-31 $2.29B $0.25B 10.94%
2013-07-31 $2.29B $0.22B 9.71%
2013-04-30 $2.29B $0.23B 9.81%
2013-01-31 $2.31B $0.25B 10.72%
2012-10-31 $2.30B $0.25B 10.66%
2012-07-31 $2.30B $0.29B 12.57%
2012-04-30 $2.28B $0.30B 12.96%
2012-01-31 $2.22B $0.29B 12.87%
2011-10-31 $2.15B $0.28B 12.78%
2011-07-31 $2.08B $0.26B 12.31%
2011-04-30 $2.01B $0.25B 12.21%
2011-01-31 $1.95B $0.21B 10.91%
2010-10-31 $1.88B $0.20B 10.69%
2010-07-31 $1.82B $0.18B 9.72%
2010-04-30 $1.76B $0.13B 7.26%
2010-01-31 $1.71B $0.06B 3.44%
2009-10-31 $1.75B $-0.10B -5.49%
2009-07-31 $1.94B $-0.02B -1.08%
2009-04-30 $2.14B $0.06B 2.71%
2009-01-31 $2.32B $0.19B 7.99%
2008-10-31 $2.43B $0.39B 15.96%
2008-07-31 $2.36B $0.37B 15.58%
2008-04-30 $2.26B $0.37B 16.31%
2008-01-31 $2.17B $0.36B 16.44%
2007-10-31 $2.07B $0.36B 17.20%
2007-07-31 $1.99B $0.33B 16.54%
2007-04-30 $1.91B $0.32B 16.94%
2007-01-31 $1.84B $0.29B 15.76%
2006-10-31 $1.77B $0.28B 15.79%
2006-07-31 $1.69B $0.32B 18.74%
2006-04-30 $1.62B $0.31B 18.96%
2006-01-31 $1.54B $0.33B 21.72%
2005-10-31 $1.48B $0.31B 21.29%
Sector Industry Market Cap Revenue
Computer and Technology Computer Software $68.787B $3.790B
Autodesk, Inc., is a leader in 3D design, engineering and entertainment software. Since its introduction of AutoCAD software in 1982, Autodesk continues to develop the broadest portfolio of 3D software for global markets. Customers across the manufacturing, architecture, building, construction, and media and entertainment industries-including the last 19 Academy Award winners for Best Visual Effects-use Autodesk software to design, visualize, and simulate their ideas before they're ever built or created. From blockbuster visual effects and buildings that create their own energy, to electric cars and the batteries that power them, the work of our 3D software customers is everywhere you look. Through their apps for iPhone, iPad, iPod, and Android, they're also making design technology accessible to professional designers and amateur designers, homeowners, students, and casual creators - anyone who wants to create and share their ideas with the world.
Stock Name Country Market Cap PE Ratio
Microsoft (MSFT) United States $2181.672B 39.90
Adobe (ADBE) United States $298.164B 64.26
Oracle (ORCL) United States $244.830B 20.98
Salesforce, Inc (CRM) United States $229.880B 71.13
SAP SE (SAP) Germany $170.480B 21.68
Intuit (INTU) United States $144.398B 68.81
Dassault Systemes SA (DASTY) France $69.806B 68.76
VMware (VMW) United States $66.334B 30.87
Synopsys (SNPS) United States $43.495B 55.35
Cadence Design Systems (CDNS) United States $40.535B 62.25
ANSYS (ANSS) United States $31.845B 65.48
SS&C Technologies Holdings (SSNC) United States $19.362B 18.07
PTC (PTC) United States $17.843B 65.25
Nuance Communications (NUAN) United States $15.777B 145.13
Citrix Systems (CTXS) United States $14.271B 31.23
Open Text (OTEX) Canada $14.034B 15.80
Pegasystems (PEGA) United States $11.117B 0.00
Aspen Technology (AZPN) United States $9.920B 43.41
Manhattan Associates (MANH) United States $9.489B 114.74
Trend Micro (TMICY) Japan $7.538B 29.43
Descartes Systems Group (DSGX) Canada $6.043B 105.01
MicroStrategy (MSTR) United States $5.260B 106.66
ACI Worldwide (ACIW) United States $4.157B 22.56
CommVault Systems (CVLT) United States $3.786B 122.63
Blackbaud (BLKB) United States $3.500B 52.33
Cornerstone OnDemand (CSOD) United States $3.239B 21.74
Verint Systems (VRNT) United States $2.761B 16.53
Progress Software (PRGS) United States $2.025B 15.63
PROS Holdings (PRO) United States $1.916B 0.00
Bottomline Technologies (EPAY) United States $1.793B 141.07
QAD (QADB) United States $1.781B 140.98
Avid Technology (AVID) United States $1.668B 47.32
Sapiens (SPNS) Israel $1.393B 25.49
Simulations Plus (SLP) United States $0.953B 83.07
OptimizeRx (OPRX) United States $0.941B 2693.00
Canaan (CAN) China $0.911B 0.00
Magic Software Enterprises (MGIC) Israel $0.847B 22.14
American Software (AMSWA) United States $0.682B 80.15
Icad Inc (ICAD) United States $0.373B 0.00
Smith Micro Software (SMSI) United States $0.304B 71.00
ServiceSource (SREV) United States $0.151B 0.00
Park City (PCYG) United States $0.109B 51.09
Neonode (NEON) Sweden $0.067B 0.00
NetSol Technologies (NTWK) United States $0.048B 19.14
BSQUARE (BSQR) United States $0.038B 0.00
GSE Systems (GVP) United States $0.029B 0.00